Kezdőlap
METAR-TAF:

METAR-TAF

Repülőterek :

Monroe Municipal Airport

Monroe, Wisconsin, Amerikai Egyesült Államok

földrajzi szélesség: 42-36-54N, földrajzi hosszúság: 089-35-27W, magasság: 331 m

Jelenlegi meteorológiai megfigyelések

A jelentés 8 perccel ezelõtt készült, 10:35 UTC
Nyugat-északnyugati szél 4 kt
Hőmérséklet -2°C
Páratartalom 93%
Légköri nyomás 1014 hPa
Látótávolság: 11.3 km
Borult 800 lábon

METAR: KEFT 131035Z AUTO 30004KT 7SM OVC008 M02/M03 A2993 RMK AO2 T10191026

Idő: 04:43 (10:43 UTC)


TAF: hiányzik

Meteorológiai megfigyelések és előrejelzések több, mint 4000 repülőtéren (METAR és TAF jelentéseket).

A térképen piros és sárga pontok jelzik az elérhető meteorológiai állomásokat.

Mozgassa az egeret a pont fölött, hogy megjelenjen az állomás neve.

Azután kattintson az időjárási megfigyelések és előrejelzések megtekintéséhez.

A térkép megváltoztatása: kattintson a fekete keresztel jelölt zöld gombra ráközelítéshez, a vonallal jelölt zöld gombra távolításhoz, vagy a zöld nyilakra a szomszédos térképek eléréséhez.


METAR-TAF: